sensor_id;sensor_type;location;lat;lon;timestamp;P1;durP1;ratioP1;P2;durP2;ratioP2
62798;SDS011;48842;51.046;13.796;2023-01-28T00:01:23;23.17;;;15.93;;
62798;SDS011;48842;51.046;13.796;2023-01-28T00:03:49;20.03;;;15.53;;
62798;SDS011;48842;51.046;13.796;2023-01-28T00:06:16;22.83;;;15.48;;
62798;SDS011;48842;51.046;13.796;2023-01-28T00:08:42;20.80;;;14.70;;
62798;SDS011;48842;51.046;13.796;2023-01-28T00:11:09;17.00;;;13.77;;
62798;SDS011;48842;51.046;13.796;2023-01-28T00:13:36;21.05;;;14.05;;
62798;SDS011;48842;51.046;13.796;2023-01-28T00:16:02;17.00;;;12.80;;
62798;SDS011;48842;51.046;13.796;2023-01-28T00:18:30;19.20;;;14.38;;
62798;SDS011;48842;51.046;13.796;2023-01-28T00:20:57;16.90;;;11.83;;
62798;SDS011;48842;51.046;13.796;2023-01-28T00:23:23;11.60;;;10.10;;
62798;SDS011;48842;51.046;13.796;2023-01-28T00:25:49;15.07;;;10.20;;
62798;SDS011;48842;51.046;13.796;2023-01-28T00:28:14;14.60;;;9.23;;
62798;SDS011;48842;51.046;13.796;2023-01-28T00:30:40;9.60;;;8.47;;
62798;SDS011;48842;51.046;13.796;2023-01-28T00:33:05;8.60;;;7.77;;
62798;SDS011;48842;51.046;13.796;2023-01-28T00:35:30;8.60;;;7.80;;
62798;SDS011;48842;51.046;13.796;2023-01-28T00:37:55;7.80;;;7.00;;
62798;SDS011;48842;51.046;13.796;2023-01-28T00:40:21;8.27;;;7.23;;
62798;SDS011;48842;51.046;13.796;2023-01-28T00:42:46;8.90;;;7.70;;
62798;SDS011;48842;51.046;13.796;2023-01-28T00:45:11;8.33;;;7.53;;
62798;SDS011;48842;51.046;13.796;2023-01-28T00:47:36;8.67;;;7.77;;
62798;SDS011;48842;51.046;13.796;2023-01-28T00:50:02;7.67;;;6.97;;
62798;SDS011;48842;51.046;13.796;2023-01-28T00:52:28;6.57;;;5.97;;
62798;SDS011;48842;51.046;13.796;2023-01-28T00:54:53;9.47;;;7.23;;
62798;SDS011;48842;51.046;13.796;2023-01-28T00:57:19;6.43;;;5.83;;
62798;SDS011;48842;51.046;13.796;2023-01-28T00:59:44;7.73;;;6.63;;
62798;SDS011;48842;51.046;13.796;2023-01-28T01:02:09;7.23;;;6.63;;
62798;SDS011;48842;51.046;13.796;2023-01-28T01:04:38;7.22;;;6.53;;
62798;SDS011;48842;51.046;13.796;2023-01-28T01:07:18;6.13;;;5.53;;
62798;SDS011;48842;51.046;13.796;2023-01-28T01:09:43;10.63;;;6.80;;
62798;SDS011;48842;51.046;13.796;2023-01-28T01:12:09;7.20;;;6.40;;
62798;SDS011;48842;51.046;13.796;2023-01-28T01:14:34;8.50;;;7.47;;
62798;SDS011;48842;51.046;13.796;2023-01-28T01:16:59;9.10;;;6.97;;
62798;SDS011;48842;51.046;13.796;2023-01-28T01:19:24;10.27;;;7.57;;
62798;SDS011;48842;51.046;13.796;2023-01-28T01:21:50;9.67;;;7.53;;
62798;SDS011;48842;51.046;13.796;2023-01-28T01:24:15;7.20;;;6.50;;
62798;SDS011;48842;51.046;13.796;2023-01-28T01:26:41;7.77;;;7.07;;
62798;SDS011;48842;51.046;13.796;2023-01-28T01:29:06;9.70;;;7.80;;
62798;SDS011;48842;51.046;13.796;2023-01-28T01:31:33;12.85;;;8.02;;
62798;SDS011;48842;51.046;13.796;2023-01-28T01:33:58;11.07;;;6.77;;
62798;SDS011;48842;51.046;13.796;2023-01-28T01:36:24;13.47;;;7.90;;
62798;SDS011;48842;51.046;13.796;2023-01-28T01:38:53;11.97;;;7.80;;
62798;SDS011;48842;51.046;13.796;2023-01-28T01:41:23;8.75;;;7.85;;
62798;SDS011;48842;51.046;13.796;2023-01-28T01:46:37;11.02;;;8.73;;
62798;SDS011;48842;51.046;13.796;2023-01-28T01:49:10;11.07;;;7.70;;
62798;SDS011;48842;51.046;13.796;2023-01-28T01:51:38;8.30;;;7.47;;
62798;SDS011;48842;51.046;13.796;2023-01-28T01:54:04;11.60;;;8.30;;
62798;SDS011;48842;51.046;13.796;2023-01-28T01:56:32;9.68;;;8.50;;
62798;SDS011;48842;51.046;13.796;2023-01-28T01:59:02;8.95;;;8.05;;
62798;SDS011;48842;51.046;13.796;2023-01-28T02:01:29;14.13;;;8.73;;
62798;SDS011;48842;51.046;13.796;2023-01-28T02:06:37;13.27;;;9.48;;
62798;SDS011;48842;51.046;13.796;2023-01-28T02:09:20;10.00;;;7.30;;
62798;SDS011;48842;51.046;13.796;2023-01-28T02:11:47;9.55;;;7.78;;
62798;SDS011;48842;51.046;13.796;2023-01-28T02:14:12;7.57;;;6.90;;
62798;SDS011;48842;51.046;13.796;2023-01-28T02:16:38;8.77;;;7.90;;
62798;SDS011;48842;51.046;13.796;2023-01-28T02:19:03;8.90;;;7.80;;
62798;SDS011;48842;51.046;13.796;2023-01-28T02:21:40;11.48;;;8.88;;
62798;SDS011;48842;51.046;13.796;2023-01-28T02:27:13;11.07;;;8.32;;
62798;SDS011;48842;51.046;13.796;2023-01-28T02:32:28;12.32;;;7.55;;
62798;SDS011;48842;51.046;13.796;2023-01-28T02:35:03;10.53;;;8.43;;
62798;SDS011;48842;51.046;13.796;2023-01-28T02:37:37;10.57;;;7.80;;
62798;SDS011;48842;51.046;13.796;2023-01-28T02:40:13;16.17;;;8.15;;
62798;SDS011;48842;51.046;13.796;2023-01-28T02:42:42;10.43;;;8.23;;
62798;SDS011;48842;51.046;13.796;2023-01-28T02:45:14;12.03;;;7.97;;
62798;SDS011;48842;51.046;13.796;2023-01-28T02:47:42;9.85;;;8.65;;
62798;SDS011;48842;51.046;13.796;2023-01-28T02:50:23;11.52;;;8.05;;
62798;SDS011;48842;51.046;13.796;2023-01-28T02:53:02;8.75;;;7.85;;
62798;SDS011;48842;51.046;13.796;2023-01-28T02:58:46;17.33;;;9.02;;
62798;SDS011;48842;51.046;13.796;2023-01-28T03:01:37;11.43;;;8.43;;
62798;SDS011;48842;51.046;13.796;2023-01-28T03:04:26;10.20;;;7.95;;
62798;SDS011;48842;51.046;13.796;2023-01-28T03:06:54;13.93;;;9.07;;
62798;SDS011;48842;51.046;13.796;2023-01-28T03:09:24;10.43;;;8.98;;
62798;SDS011;48842;51.046;13.796;2023-01-28T03:14:44;11.95;;;9.65;;
62798;SDS011;48842;51.046;13.796;2023-01-28T03:17:41;10.98;;;8.00;;
62798;SDS011;48842;51.046;13.796;2023-01-28T03:20:54;10.05;;;8.60;;
62798;SDS011;48842;51.046;13.796;2023-01-28T03:26:59;11.60;;;9.13;;
62798;SDS011;48842;51.046;13.796;2023-01-28T03:29:48;12.43;;;8.43;;
62798;SDS011;48842;51.046;13.796;2023-01-28T03:32:34;9.40;;;8.32;;
62798;SDS011;48842;51.046;13.796;2023-01-28T03:35:20;9.77;;;8.40;;
62798;SDS011;48842;51.046;13.796;2023-01-28T03:38:07;9.02;;;7.82;;
62798;SDS011;48842;51.046;13.796;2023-01-28T03:40:50;13.93;;;7.55;;
62798;SDS011;48842;51.046;13.796;2023-01-28T03:43:18;8.63;;;7.72;;
62798;SDS011;48842;51.046;13.796;2023-01-28T03:45:44;8.80;;;7.20;;
62798;SDS011;48842;51.046;13.796;2023-01-28T03:48:10;10.20;;;7.70;;
62798;SDS011;48842;51.046;13.796;2023-01-28T03:50:35;9.90;;;8.17;;
62798;SDS011;48842;51.046;13.796;2023-01-28T03:53:00;11.70;;;9.30;;
62798;SDS011;48842;51.046;13.796;2023-01-28T03:55:36;11.25;;;7.82;;
62798;SDS011;48842;51.046;13.796;2023-01-28T03:58:01;11.83;;;8.50;;
62798;SDS011;48842;51.046;13.796;2023-01-28T04:00:28;10.57;;;8.93;;
62798;SDS011;48842;51.046;13.796;2023-01-28T04:02:53;11.33;;;8.50;;
62798;SDS011;48842;51.046;13.796;2023-01-28T04:05:18;9.40;;;7.83;;
62798;SDS011;48842;51.046;13.796;2023-01-28T04:07:44;10.67;;;7.93;;
62798;SDS011;48842;51.046;13.796;2023-01-28T04:10:09;10.93;;;7.00;;
62798;SDS011;48842;51.046;13.796;2023-01-28T04:12:35;8.47;;;6.87;;
62798;SDS011;48842;51.046;13.796;2023-01-28T04:15:01;9.73;;;7.05;;
62798;SDS011;48842;51.046;13.796;2023-01-28T04:17:39;10.85;;;7.15;;
62798;SDS011;48842;51.046;13.796;2023-01-28T04:20:04;11.03;;;6.30;;
62798;SDS011;48842;51.046;13.796;2023-01-28T04:22:29;12.50;;;8.13;;
62798;SDS011;48842;51.046;13.796;2023-01-28T04:24:55;8.97;;;7.60;;
62798;SDS011;48842;51.046;13.796;2023-01-28T04:27:20;10.47;;;6.60;;
62798;SDS011;48842;51.046;13.796;2023-01-28T04:29:45;9.83;;;7.10;;
62798;SDS011;48842;51.046;13.796;2023-01-28T04:32:10;7.83;;;6.33;;
62798;SDS011;48842;51.046;13.796;2023-01-28T04:34:36;7.43;;;6.67;;
62798;SDS011;48842;51.046;13.796;2023-01-28T04:37:01;6.53;;;6.03;;
62798;SDS011;48842;51.046;13.796;2023-01-28T04:39:26;6.23;;;5.73;;
62798;SDS011;48842;51.046;13.796;2023-01-28T04:41:51;7.73;;;6.00;;
62798;SDS011;48842;51.046;13.796;2023-01-28T04:44:16;6.27;;;5.67;;
62798;SDS011;48842;51.046;13.796;2023-01-28T04:46:42;7.10;;;5.90;;
62798;SDS011;48842;51.046;13.796;2023-01-28T04:49:07;5.87;;;4.37;;
62798;SDS011;48842;51.046;13.796;2023-01-28T04:51:32;6.00;;;5.50;;
62798;SDS011;48842;51.046;13.796;2023-01-28T04:53:57;6.10;;;5.10;;
62798;SDS011;48842;51.046;13.796;2023-01-28T04:56:23;6.30;;;5.30;;
62798;SDS011;48842;51.046;13.796;2023-01-28T04:58:48;6.60;;;5.87;;
62798;SDS011;48842;51.046;13.796;2023-01-28T05:01:13;6.00;;;5.40;;
62798;SDS011;48842;51.046;13.796;2023-01-28T05:03:38;8.37;;;5.43;;
62798;SDS011;48842;51.046;13.796;2023-01-28T05:06:04;5.30;;;4.80;;
62798;SDS011;48842;51.046;13.796;2023-01-28T05:08:29;5.60;;;4.63;;
62798;SDS011;48842;51.046;13.796;2023-01-28T05:10:54;4.00;;;3.70;;
62798;SDS011;48842;51.046;13.796;2023-01-28T05:13:20;4.50;;;4.10;;
62798;SDS011;48842;51.046;13.796;2023-01-28T05:15:49;5.00;;;4.50;;
62798;SDS011;48842;51.046;13.796;2023-01-28T05:18:15;4.07;;;3.78;;
62798;SDS011;48842;51.046;13.796;2023-01-28T05:20:40;4.50;;;4.10;;
62798;SDS011;48842;51.046;13.796;2023-01-28T05:23:06;6.73;;;3.90;;
62798;SDS011;48842;51.046;13.796;2023-01-28T05:25:31;5.00;;;4.60;;
62798;SDS011;48842;51.046;13.796;2023-01-28T05:27:56;5.80;;;3.90;;
62798;SDS011;48842;51.046;13.796;2023-01-28T05:30:21;4.73;;;4.30;;
62798;SDS011;48842;51.046;13.796;2023-01-28T05:32:47;8.27;;;4.13;;
62798;SDS011;48842;51.046;13.796;2023-01-28T05:35:12;3.93;;;3.63;;
62798;SDS011;48842;51.046;13.796;2023-01-28T05:37:37;4.33;;;3.93;;
62798;SDS011;48842;51.046;13.796;2023-01-28T05:40:03;7.83;;;4.90;;
62798;SDS011;48842;51.046;13.796;2023-01-28T05:42:28;4.80;;;4.00;;
62798;SDS011;48842;51.046;13.796;2023-01-28T05:44:53;4.20;;;3.90;;
62798;SDS011;48842;51.046;13.796;2023-01-28T05:47:19;5.93;;;3.87;;
62798;SDS011;48842;51.046;13.796;2023-01-28T05:49:44;5.90;;;4.53;;
62798;SDS011;48842;51.046;13.796;2023-01-28T05:52:10;5.90;;;5.22;;
62798;SDS011;48842;51.046;13.796;2023-01-28T05:54:35;5.73;;;5.00;;
62798;SDS011;48842;51.046;13.796;2023-01-28T05:57:01;5.23;;;4.50;;
62798;SDS011;48842;51.046;13.796;2023-01-28T05:59:26;7.90;;;4.47;;
62798;SDS011;48842;51.046;13.796;2023-01-28T06:01:51;5.10;;;4.70;;
62798;SDS011;48842;51.046;13.796;2023-01-28T06:04:16;3.80;;;3.60;;
62798;SDS011;48842;51.046;13.796;2023-01-28T06:06:44;7.70;;;4.70;;
62798;SDS011;48842;51.046;13.796;2023-01-28T06:09:09;4.27;;;3.97;;
62798;SDS011;48842;51.046;13.796;2023-01-28T06:11:34;4.93;;;4.53;;
62798;SDS011;48842;51.046;13.796;2023-01-28T06:14:00;6.23;;;5.37;;
62798;SDS011;48842;51.046;13.796;2023-01-28T06:16:25;4.60;;;4.20;;
62798;SDS011;48842;51.046;13.796;2023-01-28T06:18:50;6.30;;;5.00;;
62798;SDS011;48842;51.046;13.796;2023-01-28T06:21:15;7.90;;;4.80;;
62798;SDS011;48842;51.046;13.796;2023-01-28T06:23:41;10.40;;;4.40;;
62798;SDS011;48842;51.046;13.796;2023-01-28T06:26:06;4.13;;;3.83;;
62798;SDS011;48842;51.046;13.796;2023-01-28T06:28:31;6.90;;;5.67;;
62798;SDS011;48842;51.046;13.796;2023-01-28T06:30:57;5.33;;;4.83;;
62798;SDS011;48842;51.046;13.796;2023-01-28T06:33:22;4.63;;;4.23;;
62798;SDS011;48842;51.046;13.796;2023-01-28T06:35:48;5.00;;;4.60;;
62798;SDS011;48842;51.046;13.796;2023-01-28T06:38:13;6.37;;;4.70;;
62798;SDS011;48842;51.046;13.796;2023-01-28T06:40:39;5.57;;;4.23;;
62798;SDS011;48842;51.046;13.796;2023-01-28T06:43:04;7.50;;;4.40;;
62798;SDS011;48842;51.046;13.796;2023-01-28T06:45:30;5.60;;;4.47;;
62798;SDS011;48842;51.046;13.796;2023-01-28T06:47:56;7.45;;;4.72;;
62798;SDS011;48842;51.046;13.796;2023-01-28T06:50:21;4.20;;;3.90;;
62798;SDS011;48842;51.046;13.796;2023-01-28T06:52:47;5.30;;;4.73;;
62798;SDS011;48842;51.046;13.796;2023-01-28T06:55:12;4.53;;;4.20;;
62798;SDS011;48842;51.046;13.796;2023-01-28T06:57:37;5.13;;;4.63;;
62798;SDS011;48842;51.046;13.796;2023-01-28T07:00:08;6.35;;;3.85;;
62798;SDS011;48842;51.046;13.796;2023-01-28T07:02:34;4.00;;;3.70;;
62798;SDS011;48842;51.046;13.796;2023-01-28T07:05:00;5.10;;;3.53;;
62798;SDS011;48842;51.046;13.796;2023-01-28T07:07:26;4.27;;;3.87;;
62798;SDS011;48842;51.046;13.796;2023-01-28T07:09:51;5.30;;;4.20;;
62798;SDS011;48842;51.046;13.796;2023-01-28T07:12:16;5.10;;;3.60;;
62798;SDS011;48842;51.046;13.796;2023-01-28T07:14:42;4.70;;;4.27;;
62798;SDS011;48842;51.046;13.796;2023-01-28T07:17:07;4.07;;;3.77;;
62798;SDS011;48842;51.046;13.796;2023-01-28T07:19:32;4.80;;;3.77;;
62798;SDS011;48842;51.046;13.796;2023-01-28T07:21:57;3.93;;;3.47;;
62798;SDS011;48842;51.046;13.796;2023-01-28T07:24:24;4.20;;;3.90;;
62798;SDS011;48842;51.046;13.796;2023-01-28T07:26:50;3.63;;;3.40;;
62798;SDS011;48842;51.046;13.796;2023-01-28T07:29:15;3.60;;;3.30;;
62798;SDS011;48842;51.046;13.796;2023-01-28T07:31:41;3.90;;;3.70;;
62798;SDS011;48842;51.046;13.796;2023-01-28T07:34:07;5.00;;;3.93;;
62798;SDS011;48842;51.046;13.796;2023-01-28T07:36:33;3.92;;;3.60;;
62798;SDS011;48842;51.046;13.796;2023-01-28T07:38:58;4.37;;;4.10;;
62798;SDS011;48842;51.046;13.796;2023-01-28T07:41:23;3.90;;;3.20;;
62798;SDS011;48842;51.046;13.796;2023-01-28T07:43:49;5.07;;;3.30;;
62798;SDS011;48842;51.046;13.796;2023-01-28T07:46:14;3.70;;;3.40;;
62798;SDS011;48842;51.046;13.796;2023-01-28T07:48:39;3.80;;;3.50;;
62798;SDS011;48842;51.046;13.796;2023-01-28T07:51:04;5.17;;;3.60;;
62798;SDS011;48842;51.046;13.796;2023-01-28T07:53:30;3.20;;;2.97;;
62798;SDS011;48842;51.046;13.796;2023-01-28T07:55:59;3.67;;;3.20;;
62798;SDS011;48842;51.046;13.796;2023-01-28T07:58:26;2.95;;;2.75;;
62798;SDS011;48842;51.046;13.796;2023-01-28T08:00:54;2.77;;;2.67;;
62798;SDS011;48842;51.046;13.796;2023-01-28T08:03:21;3.60;;;3.35;;
62798;SDS011;48842;51.046;13.796;2023-01-28T08:05:47;2.73;;;2.53;;
62798;SDS011;48842;51.046;13.796;2023-01-28T08:08:14;2.92;;;2.72;;
62798;SDS011;48842;51.046;13.796;2023-01-28T08:10:40;3.25;;;2.95;;
62798;SDS011;48842;51.046;13.796;2023-01-28T08:13:05;3.13;;;2.93;;
62798;SDS011;48842;51.046;13.796;2023-01-28T08:15:31;2.78;;;2.67;;
62798;SDS011;48842;51.046;13.796;2023-01-28T08:17:57;3.00;;;2.80;;
62798;SDS011;48842;51.046;13.796;2023-01-28T08:20:26;3.07;;;2.77;;
62798;SDS011;48842;51.046;13.796;2023-01-28T08:22:53;8.32;;;3.05;;
62798;SDS011;48842;51.046;13.796;2023-01-28T08:25:32;3.00;;;2.80;;
62798;SDS011;48842;51.046;13.796;2023-01-28T08:27:57;3.85;;;3.55;;
62798;SDS011;48842;51.046;13.796;2023-01-28T08:30:22;3.10;;;2.87;;
62798;SDS011;48842;51.046;13.796;2023-01-28T08:32:48;4.50;;;2.77;;
62798;SDS011;48842;51.046;13.796;2023-01-28T08:35:13;3.00;;;2.80;;
62798;SDS011;48842;51.046;13.796;2023-01-28T08:37:38;2.93;;;2.73;;
62798;SDS011;48842;51.046;13.796;2023-01-28T08:40:04;3.10;;;2.90;;
62798;SDS011;48842;51.046;13.796;2023-01-28T08:42:29;3.53;;;2.77;;
62798;SDS011;48842;51.046;13.796;2023-01-28T08:44:55;4.13;;;2.90;;
62798;SDS011;48842;51.046;13.796;2023-01-28T08:47:20;2.90;;;2.70;;
62798;SDS011;48842;51.046;13.796;2023-01-28T08:49:45;2.47;;;2.37;;
62798;SDS011;48842;51.046;13.796;2023-01-28T08:52:11;3.50;;;3.20;;
62798;SDS011;48842;51.046;13.796;2023-01-28T08:54:36;3.80;;;3.30;;
62798;SDS011;48842;51.046;13.796;2023-01-28T08:57:01;3.30;;;3.10;;
62798;SDS011;48842;51.046;13.796;2023-01-28T08:59:27;3.67;;;3.37;;
62798;SDS011;48842;51.046;13.796;2023-01-28T09:01:52;3.07;;;2.73;;
62798;SDS011;48842;51.046;13.796;2023-01-28T09:04:17;3.17;;;2.87;;
62798;SDS011;48842;51.046;13.796;2023-01-28T09:06:43;3.97;;;3.43;;
62798;SDS011;48842;51.046;13.796;2023-01-28T09:09:08;3.30;;;3.00;;
62798;SDS011;48842;51.046;13.796;2023-01-28T09:11:33;3.23;;;2.93;;
62798;SDS011;48842;51.046;13.796;2023-01-28T09:13:58;3.43;;;3.13;;
62798;SDS011;48842;51.046;13.796;2023-01-28T09:16:24;3.60;;;3.30;;
62798;SDS011;48842;51.046;13.796;2023-01-28T09:18:50;3.15;;;2.95;;
62798;SDS011;48842;51.046;13.796;2023-01-28T09:21:16;3.57;;;3.33;;
62798;SDS011;48842;51.046;13.796;2023-01-28T09:23:41;3.73;;;3.13;;
62798;SDS011;48842;51.046;13.796;2023-01-28T09:26:07;4.97;;;3.10;;
62798;SDS011;48842;51.046;13.796;2023-01-28T09:28:33;3.10;;;2.90;;
62798;SDS011;48842;51.046;13.796;2023-01-28T09:31:03;4.30;;;3.90;;
62798;SDS011;48842;51.046;13.796;2023-01-28T09:33:29;3.65;;;3.30;;
62798;SDS011;48842;51.046;13.796;2023-01-28T09:35:55;3.22;;;3.03;;
62798;SDS011;48842;51.046;13.796;2023-01-28T09:38:24;3.83;;;3.53;;
62798;SDS011;48842;51.046;13.796;2023-01-28T09:40:49;3.83;;;2.90;;
62798;SDS011;48842;51.046;13.796;2023-01-28T09:43:19;4.30;;;3.80;;
62798;SDS011;48842;51.046;13.796;2023-01-28T09:46:12;3.65;;;3.35;;
62798;SDS011;48842;51.046;13.796;2023-01-28T09:48:47;4.05;;;3.75;;
62798;SDS011;48842;51.046;13.796;2023-01-28T09:51:20;4.75;;;4.25;;
62798;SDS011;48842;51.046;13.796;2023-01-28T09:53:53;5.70;;;3.17;;
62798;SDS011;48842;51.046;13.796;2023-01-28T09:56:24;2.65;;;2.45;;
62798;SDS011;48842;51.046;13.796;2023-01-28T09:58:52;2.90;;;2.70;;
62798;SDS011;48842;51.046;13.796;2023-01-28T10:04:36;8.25;;;5.30;;
62798;SDS011;48842;51.046;13.796;2023-01-28T10:10:05;5.93;;;5.15;;
62798;SDS011;48842;51.046;13.796;2023-01-28T10:12:39;5.80;;;5.22;;
62798;SDS011;48842;51.046;13.796;2023-01-28T10:18:20;3.28;;;3.08;;
62798;SDS011;48842;51.046;13.796;2023-01-28T10:20:54;5.80;;;3.33;;
62798;SDS011;48842;51.046;13.796;2023-01-28T10:23:33;2.63;;;2.35;;
62798;SDS011;48842;51.046;13.796;2023-01-28T10:26:08;2.78;;;2.58;;
62798;SDS011;48842;51.046;13.796;2023-01-28T10:28:44;3.42;;;3.13;;
62798;SDS011;48842;51.046;13.796;2023-01-28T10:31:13;2.45;;;2.25;;
62798;SDS011;48842;51.046;13.796;2023-01-28T10:33:39;2.47;;;2.30;;
62798;SDS011;48842;51.046;13.796;2023-01-28T10:36:07;2.77;;;2.43;;
62798;SDS011;48842;51.046;13.796;2023-01-28T10:38:33;2.80;;;2.60;;
62798;SDS011;48842;51.046;13.796;2023-01-28T10:41:00;5.93;;;2.75;;
62798;SDS011;48842;51.046;13.796;2023-01-28T10:43:29;3.47;;;2.70;;
62798;SDS011;48842;51.046;13.796;2023-01-28T10:46:02;2.92;;;2.45;;
62798;SDS011;48842;51.046;13.796;2023-01-28T10:48:34;2.17;;;2.00;;
62798;SDS011;48842;51.046;13.796;2023-01-28T10:51:03;5.40;;;3.08;;
62798;SDS011;48842;51.046;13.796;2023-01-28T10:56:13;6.97;;;2.60;;
62798;SDS011;48842;51.046;13.796;2023-01-28T10:58:49;2.50;;;2.30;;
62798;SDS011;48842;51.046;13.796;2023-01-28T11:01:23;2.80;;;2.60;;
62798;SDS011;48842;51.046;13.796;2023-01-28T11:03:53;4.87;;;2.37;;
62798;SDS011;48842;51.046;13.796;2023-01-28T11:06:22;2.63;;;2.42;;
62798;SDS011;48842;51.046;13.796;2023-01-28T11:08:49;2.80;;;2.60;;
62798;SDS011;48842;51.046;13.796;2023-01-28T11:11:15;3.93;;;2.40;;
62798;SDS011;48842;51.046;13.796;2023-01-28T11:13:48;3.97;;;2.60;;
62798;SDS011;48842;51.046;13.796;2023-01-28T11:16:17;3.08;;;2.00;;
62798;SDS011;48842;51.046;13.796;2023-01-28T11:18:50;2.60;;;2.33;;
62798;SDS011;48842;51.046;13.796;2023-01-28T11:21:18;2.38;;;2.13;;
62798;SDS011;48842;51.046;13.796;2023-01-28T11:26:22;2.88;;;2.35;;
62798;SDS011;48842;51.046;13.796;2023-01-28T11:28:50;1.90;;;1.77;;
62798;SDS011;48842;51.046;13.796;2023-01-28T11:31:16;2.78;;;2.58;;
62798;SDS011;48842;51.046;13.796;2023-01-28T11:33:46;6.65;;;2.65;;
62798;SDS011;48842;51.046;13.796;2023-01-28T11:36:19;2.75;;;2.45;;
62798;SDS011;48842;51.046;13.796;2023-01-28T11:39:02;3.45;;;1.92;;
62798;SDS011;48842;51.046;13.796;2023-01-28T11:41:40;3.85;;;3.00;;
62798;SDS011;48842;51.046;13.796;2023-01-28T11:44:15;2.70;;;2.50;;
62798;SDS011;48842;51.046;13.796;2023-01-28T11:46:47;2.20;;;2.00;;
62798;SDS011;48842;51.046;13.796;2023-01-28T11:49:25;4.75;;;2.20;;
62798;SDS011;48842;51.046;13.796;2023-01-28T11:52:09;2.03;;;1.92;;
62798;SDS011;48842;51.046;13.796;2023-01-28T11:55:10;2.30;;;1.67;;
62798;SDS011;48842;51.046;13.796;2023-01-28T11:57:55;3.22;;;2.25;;
62798;SDS011;48842;51.046;13.796;2023-01-28T12:00:51;2.20;;;2.10;;
62798;SDS011;48842;51.046;13.796;2023-01-28T12:03:40;2.40;;;2.08;;
62798;SDS011;48842;51.046;13.796;2023-01-28T12:09:11;2.63;;;2.42;;
62798;SDS011;48842;51.046;13.796;2023-01-28T12:11:54;3.10;;;2.30;;
62798;SDS011;48842;51.046;13.796;2023-01-28T12:23:13;2.88;;;1.75;;
62798;SDS011;48842;51.046;13.796;2023-01-28T12:28:56;3.58;;;2.42;;
62798;SDS011;48842;51.046;13.796;2023-01-28T12:34:38;6.00;;;2.50;;
62798;SDS011;48842;51.046;13.796;2023-01-28T12:42:38;2.38;;;2.05;;
62798;SDS011;48842;51.046;13.796;2023-01-28T12:45:24;3.38;;;2.40;;
62798;SDS011;48842;51.046;13.796;2023-01-28T12:48:05;2.22;;;2.13;;
62798;SDS011;48842;51.046;13.796;2023-01-28T12:50:36;2.88;;;2.40;;
62798;SDS011;48842;51.046;13.796;2023-01-28T12:53:16;2.28;;;2.17;;
62798;SDS011;48842;51.046;13.796;2023-01-28T12:55:54;2.55;;;2.35;;
62798;SDS011;48842;51.046;13.796;2023-01-28T12:58:35;2.33;;;2.22;;
62798;SDS011;48842;51.046;13.796;2023-01-28T13:01:07;5.65;;;2.30;;
62798;SDS011;48842;51.046;13.796;2023-01-28T13:03:44;2.00;;;1.90;;
62798;SDS011;48842;51.046;13.796;2023-01-28T13:06:20;2.33;;;2.20;;
62798;SDS011;48842;51.046;13.796;2023-01-28T13:08:51;2.20;;;2.00;;
62798;SDS011;48842;51.046;13.796;2023-01-28T13:11:22;2.38;;;2.00;;
62798;SDS011;48842;51.046;13.796;2023-01-28T13:13:48;2.42;;;1.98;;
62798;SDS011;48842;51.046;13.796;2023-01-28T13:16:14;2.20;;;2.00;;
62798;SDS011;48842;51.046;13.796;2023-01-28T13:21:13;1.63;;;1.60;;
62798;SDS011;48842;51.046;13.796;2023-01-28T13:24:03;2.05;;;1.90;;
62798;SDS011;48842;51.046;13.796;2023-01-28T13:31:48;2.80;;;2.60;;
62798;SDS011;48842;51.046;13.796;2023-01-28T13:34:26;2.40;;;2.25;;
62798;SDS011;48842;51.046;13.796;2023-01-28T13:37:15;3.60;;;2.35;;
62798;SDS011;48842;51.046;13.796;2023-01-28T13:39:58;3.22;;;2.15;;
62798;SDS011;48842;51.046;13.796;2023-01-28T13:42:27;3.05;;;1.83;;
62798;SDS011;48842;51.046;13.796;2023-01-28T13:44:55;2.30;;;2.10;;
62798;SDS011;48842;51.046;13.796;2023-01-28T13:47:32;7.13;;;2.20;;
62798;SDS011;48842;51.046;13.796;2023-01-28T13:50:03;2.55;;;2.35;;
62798;SDS011;48842;51.046;13.796;2023-01-28T13:52:35;3.13;;;2.65;;
62798;SDS011;48842;51.046;13.796;2023-01-28T13:55:15;3.60;;;2.00;;
62798;SDS011;48842;51.046;13.796;2023-01-28T14:04:17;2.30;;;2.10;;
62798;SDS011;48842;51.046;13.796;2023-01-28T14:07:09;2.10;;;2.00;;
62798;SDS011;48842;51.046;13.796;2023-01-28T14:09:55;2.42;;;2.33;;
62798;SDS011;48842;51.046;13.796;2023-01-28T14:18:19;2.45;;;2.25;;
62798;SDS011;48842;51.046;13.796;2023-01-28T14:21:00;2.92;;;2.53;;
62798;SDS011;48842;51.046;13.796;2023-01-28T14:23:32;2.97;;;2.33;;
62798;SDS011;48842;51.046;13.796;2023-01-28T14:31:45;2.55;;;2.35;;
62798;SDS011;48842;51.046;13.796;2023-01-28T14:36:48;3.10;;;2.20;;
62798;SDS011;48842;51.046;13.796;2023-01-28T14:39:15;2.78;;;2.25;;
62798;SDS011;48842;51.046;13.796;2023-01-28T14:41:44;3.45;;;2.50;;
62798;SDS011;48842;51.046;13.796;2023-01-28T14:44:21;3.03;;;2.83;;
62798;SDS011;48842;51.046;13.796;2023-01-28T14:46:53;2.95;;;2.75;;
62798;SDS011;48842;51.046;13.796;2023-01-28T14:49:34;2.15;;;2.05;;
62798;SDS011;48842;51.046;13.796;2023-01-28T14:52:23;2.65;;;2.30;;
62798;SDS011;48842;51.046;13.796;2023-01-28T14:55:20;2.55;;;2.30;;
62798;SDS011;48842;51.046;13.796;2023-01-28T14:57:58;2.78;;;2.30;;
62798;SDS011;48842;51.046;13.796;2023-01-28T15:00:28;2.58;;;2.38;;
62798;SDS011;48842;51.046;13.796;2023-01-28T15:02:55;4.95;;;2.97;;
62798;SDS011;48842;51.046;13.796;2023-01-28T15:05:24;2.77;;;2.57;;
62798;SDS011;48842;51.046;13.796;2023-01-28T15:07:51;2.80;;;2.45;;
62798;SDS011;48842;51.046;13.796;2023-01-28T15:10:18;2.40;;;2.30;;
62798;SDS011;48842;51.046;13.796;2023-01-28T15:12:52;1.70;;;1.60;;
62798;SDS011;48842;51.046;13.796;2023-01-28T15:15:33;3.42;;;1.80;;
62798;SDS011;48842;51.046;13.796;2023-01-28T15:18:17;2.65;;;1.92;;
62798;SDS011;48842;51.046;13.796;2023-01-28T15:20:46;2.13;;;1.90;;
62798;SDS011;48842;51.046;13.796;2023-01-28T15:23:16;2.90;;;2.00;;
62798;SDS011;48842;51.046;13.796;2023-01-28T15:25:51;2.30;;;2.20;;
62798;SDS011;48842;51.046;13.796;2023-01-28T15:28:21;2.25;;;1.90;;
62798;SDS011;48842;51.046;13.796;2023-01-28T15:30:50;2.60;;;2.25;;
62798;SDS011;48842;51.046;13.796;2023-01-28T15:33:16;1.97;;;1.87;;
62798;SDS011;48842;51.046;13.796;2023-01-28T15:35:51;6.00;;;1.67;;
62798;SDS011;48842;51.046;13.796;2023-01-28T15:38:18;3.95;;;2.00;;
62798;SDS011;48842;51.046;13.796;2023-01-28T15:40:48;1.70;;;1.60;;
62798;SDS011;48842;51.046;13.796;2023-01-28T15:43:20;2.20;;;2.00;;
62798;SDS011;48842;51.046;13.796;2023-01-28T15:45:48;2.92;;;2.35;;
62798;SDS011;48842;51.046;13.796;2023-01-28T15:48:20;2.50;;;2.33;;
62798;SDS011;48842;51.046;13.796;2023-01-28T15:50:47;2.55;;;2.20;;
62798;SDS011;48842;51.046;13.796;2023-01-28T15:53:22;2.03;;;1.80;;
62798;SDS011;48842;51.046;13.796;2023-01-28T15:55:47;2.23;;;1.50;;
62798;SDS011;48842;51.046;13.796;2023-01-28T15:58:16;1.87;;;1.70;;
62798;SDS011;48842;51.046;13.796;2023-01-28T16:00:44;8.35;;;2.17;;
62798;SDS011;48842;51.046;13.796;2023-01-28T16:03:09;5.85;;;1.80;;
62798;SDS011;48842;51.046;13.796;2023-01-28T16:05:42;1.70;;;1.60;;
62798;SDS011;48842;51.046;13.796;2023-01-28T16:08:27;4.75;;;2.38;;
62798;SDS011;48842;51.046;13.796;2023-01-28T16:11:01;1.77;;;1.67;;
62798;SDS011;48842;51.046;13.796;2023-01-28T16:13:27;2.00;;;1.77;;